createdAt,value
2022-12-19T00:01:35.438Z,29.50
2022-12-19T00:04:07.792Z,28.92
2022-12-19T00:06:36.263Z,29.65
2022-12-19T00:09:02.984Z,29.58
2022-12-19T00:11:29.747Z,30.40
2022-12-19T00:13:56.212Z,33.15
2022-12-19T00:16:25.435Z,32.20
2022-12-19T00:18:55.252Z,30.23
2022-12-19T00:21:24.707Z,29.77
2022-12-19T00:23:52.168Z,27.55
2022-12-19T00:26:21.183Z,27.58
2022-12-19T00:28:53.593Z,28.52
2022-12-19T00:31:21.881Z,26.42
2022-12-19T00:33:49.244Z,26.35
2022-12-19T00:36:24.414Z,26.98
2022-12-19T00:38:53.077Z,27.55
2022-12-19T00:41:28.371Z,25.48
2022-12-19T00:43:58.344Z,26.85
2022-12-19T00:46:25.721Z,29.17
2022-12-19T00:48:52.250Z,29.10
2022-12-19T00:51:29.319Z,29.58
2022-12-19T00:53:56.938Z,30.52
2022-12-19T00:56:28.941Z,29.55
2022-12-19T00:58:55.802Z,31.50
2022-12-19T01:01:25.955Z,29.02
2022-12-19T01:04:26.650Z,32.47
2022-12-19T01:06:42.454Z,29.13
2022-12-19T01:09:11.509Z,29.20
2022-12-19T01:11:56.610Z,28.60
2022-12-19T01:14:23.810Z,29.27
2022-12-19T01:16:51.525Z,28.20
2022-12-19T01:19:19.178Z,29.08
2022-12-19T01:21:45.614Z,30.63
2022-12-19T01:24:12.735Z,30.73
2022-12-19T01:26:40.195Z,32.35
2022-12-19T01:29:06.628Z,30.73
2022-12-19T01:31:33.607Z,29.15
2022-12-19T01:34:02.721Z,31.33
2022-12-19T01:36:30.099Z,29.95
2022-12-19T01:38:59.892Z,30.13
2022-12-19T01:41:27.424Z,30.75
2022-12-19T01:44:00.999Z,31.63
2022-12-19T01:46:34.172Z,30.20
2022-12-19T01:49:02.554Z,32.55
2022-12-19T01:51:39.729Z,33.90
2022-12-19T01:54:10.031Z,32.75
2022-12-19T01:56:42.244Z,34.28
2022-12-19T01:59:13.957Z,34.78
2022-12-19T02:01:51.885Z,38.78
2022-12-19T02:04:23.713Z,35.83
2022-12-19T02:06:51.758Z,33.50
2022-12-19T02:09:18.860Z,32.47
2022-12-19T02:11:45.970Z,31.70
2022-12-19T02:14:13.510Z,29.50
2022-12-19T02:17:05.635Z,28.85
2022-12-19T02:19:44.289Z,26.05
2022-12-19T02:22:34.373Z,29.15
2022-12-19T02:25:17.724Z,27.25
2022-12-19T02:27:53.603Z,26.95
2022-12-19T02:30:47.958Z,26.15
2022-12-19T02:33:35.608Z,25.88
2022-12-19T02:36:10.604Z,26.60
2022-12-19T02:38:45.411Z,25.90
2022-12-19T02:41:25.913Z,26.13
2022-12-19T02:43:56.390Z,28.08
2022-12-19T02:46:28.350Z,24.58
2022-12-19T02:48:56.705Z,26.00
2022-12-19T02:51:23.072Z,25.33
2022-12-19T02:53:50.567Z,25.25
2022-12-19T02:56:28.839Z,25.75
2022-12-19T02:59:14.823Z,27.17
2022-12-19T03:02:07.256Z,25.48
2022-12-19T03:04:52.342Z,25.27
2022-12-19T03:07:37.359Z,23.88
2022-12-19T03:10:17.039Z,25.05
2022-12-19T03:12:58.086Z,25.30
2022-12-19T03:15:25.130Z,24.55
2022-12-19T03:17:57.700Z,25.08
2022-12-19T03:20:30.490Z,25.23
2022-12-19T03:22:56.857Z,24.77
2022-12-19T03:25:24.522Z,25.15
2022-12-19T03:27:53.174Z,24.73
2022-12-19T03:30:19.611Z,25.35
2022-12-19T03:32:48.037Z,25.27
2022-12-19T03:35:20.374Z,24.25
2022-12-19T03:37:49.279Z,24.55
2022-12-19T03:40:23.783Z,25.38
2022-12-19T03:43:11.674Z,24.98
2022-12-19T03:46:11.369Z,24.38
2022-12-19T03:49:07.182Z,24.17
2022-12-19T03:51:42.716Z,24.00
2022-12-19T03:54:15.722Z,24.30
2022-12-19T03:56:57.947Z,25.17
2022-12-19T03:59:36.173Z,25.05
2022-12-19T04:02:04.309Z,24.98
2022-12-19T04:04:35.902Z,24.35
2022-12-19T04:07:03.905Z,23.55
2022-12-19T04:09:30.892Z,24.80
2022-12-19T04:12:03.331Z,24.50
2022-12-19T04:14:35.733Z,24.53
2022-12-19T04:17:08.295Z,26.27
2022-12-19T04:19:43.819Z,26.27
2022-12-19T04:22:20.967Z,26.77
2022-12-19T04:24:49.937Z,26.58
2022-12-19T04:27:17.499Z,26.05
2022-12-19T04:29:44.350Z,27.65
2022-12-19T04:32:11.873Z,29.05
2022-12-19T04:34:42.721Z,26.95
2022-12-19T04:37:10.771Z,27.13
2022-12-19T04:39:37.214Z,27.20
2022-12-19T04:42:03.784Z,27.42
2022-12-19T04:44:30.564Z,27.42
2022-12-19T04:46:57.017Z,28.20
2022-12-19T04:49:23.537Z,28.27
2022-12-19T04:51:50.889Z,28.60
2022-12-19T04:54:17.377Z,28.70
2022-12-19T04:56:43.755Z,29.40
2022-12-19T04:59:10.674Z,30.38
2022-12-19T05:01:37.151Z,29.42
2022-12-19T05:04:04.876Z,29.17
2022-12-19T05:06:31.780Z,29.88
2022-12-19T05:08:58.678Z,29.15
2022-12-19T05:11:25.064Z,29.77
2022-12-19T05:13:51.617Z,30.92
2022-12-19T05:16:18.388Z,30.63
2022-12-19T05:18:44.891Z,30.58
2022-12-19T05:21:12.711Z,30.85
2022-12-19T05:23:39.249Z,30.08
2022-12-19T05:26:06.847Z,28.98
2022-12-19T05:28:34.448Z,30.50
2022-12-19T05:31:05.288Z,31.90
2022-12-19T05:33:31.692Z,30.63
2022-12-19T05:35:58.058Z,32.63
2022-12-19T05:38:25.717Z,32.83
2022-12-19T05:40:52.185Z,32.25
2022-12-19T05:43:18.623Z,32.53
2022-12-19T05:45:45.049Z,32.92
2022-12-19T05:48:11.464Z,33.63
2022-12-19T05:50:37.853Z,32.53
2022-12-19T05:53:09.108Z,32.90
2022-12-19T05:55:35.529Z,31.35
2022-12-19T05:58:01.903Z,30.38
2022-12-19T06:00:28.315Z,32.80
2022-12-19T06:02:54.943Z,31.83
2022-12-19T06:05:21.423Z,33.10
2022-12-19T06:07:47.918Z,32.30
2022-12-19T06:10:14.421Z,32.80
2022-12-19T06:12:40.853Z,30.60
2022-12-19T06:15:07.883Z,33.00
2022-12-19T06:17:34.658Z,32.75
2022-12-19T06:20:01.038Z,32.03
2022-12-19T06:22:27.441Z,33.83
2022-12-19T06:24:53.795Z,34.75
2022-12-19T06:27:20.200Z,31.80
2022-12-19T06:29:46.593Z,31.80
2022-12-19T06:32:13.194Z,32.90
2022-12-19T06:35:03.205Z,34.42
2022-12-19T06:37:26.166Z,34.40
2022-12-19T06:39:52.531Z,33.33
2022-12-19T06:42:25.508Z,34.88
2022-12-19T06:44:54.912Z,33.70
2022-12-19T06:47:23.477Z,33.72
2022-12-19T06:49:50.161Z,35.00
2022-12-19T06:52:17.373Z,31.70
2022-12-19T06:54:43.998Z,33.20
2022-12-19T06:57:10.483Z,31.73
2022-12-19T06:59:36.897Z,34.17
2022-12-19T07:02:17.301Z,34.25
2022-12-19T07:04:49.395Z,33.45
2022-12-19T07:07:16.412Z,32.70
2022-12-19T07:09:42.823Z,32.88
2022-12-19T07:12:09.557Z,33.63
2022-12-19T07:14:35.998Z,33.67
2022-12-19T07:17:03.282Z,31.42
2022-12-19T07:19:31.117Z,32.80
2022-12-19T07:21:59.290Z,31.50
2022-12-19T07:24:25.873Z,31.27
2022-12-19T07:26:52.259Z,31.40
2022-12-19T07:29:18.910Z,30.75
2022-12-19T07:31:45.300Z,32.70
2022-12-19T07:34:11.899Z,32.08
2022-12-19T07:36:38.335Z,30.98
2022-12-19T07:39:04.950Z,31.90
2022-12-19T07:41:31.411Z,32.17
2022-12-19T07:43:58.173Z,30.30
2022-12-19T07:46:24.548Z,31.48
2022-12-19T07:48:50.927Z,32.00
2022-12-19T07:51:17.346Z,31.55
2022-12-19T07:53:43.794Z,33.15
2022-12-19T07:56:10.149Z,31.95
2022-12-19T07:58:36.972Z,31.52
2022-12-19T08:01:03.487Z,31.90
2022-12-19T08:03:29.911Z,30.95
2022-12-19T08:06:01.012Z,29.73
2022-12-19T08:08:28.224Z,30.02
2022-12-19T08:10:54.881Z,29.80
2022-12-19T08:13:21.321Z,30.42
2022-12-19T08:15:47.798Z,31.08
2022-12-19T08:18:14.391Z,29.10
2022-12-19T08:20:45.279Z,30.02
2022-12-19T08:23:11.677Z,31.10
2022-12-19T08:25:38.054Z,29.17
2022-12-19T08:28:04.636Z,30.73
2022-12-19T08:30:31.046Z,29.75
2022-12-19T08:32:57.637Z,30.70
2022-12-19T08:35:24.049Z,30.35
2022-12-19T08:37:50.426Z,31.30
2022-12-19T08:40:16.952Z,31.23
2022-12-19T08:42:43.338Z,30.38
2022-12-19T08:45:09.852Z,30.75
2022-12-19T08:47:36.250Z,30.02
2022-12-19T08:50:02.718Z,30.33
2022-12-19T08:52:29.112Z,29.95
2022-12-19T08:54:55.750Z,30.73
2022-12-19T08:57:22.154Z,30.33
2022-12-19T08:59:48.520Z,29.85
2022-12-19T09:02:16.167Z,28.95
2022-12-19T09:05:57.575Z,30.27
2022-12-19T09:07:30.695Z,29.35
2022-12-19T09:09:57.053Z,31.02
2022-12-19T09:12:23.440Z,29.55
2022-12-19T09:14:49.962Z,29.02
2022-12-19T09:17:17.018Z,28.27
2022-12-19T09:19:47.057Z,30.30
2022-12-19T09:22:14.896Z,29.42
2022-12-19T09:24:41.382Z,27.02
2022-12-19T09:27:07.814Z,29.08
2022-12-19T09:29:35.746Z,27.27
2022-12-19T09:32:02.539Z,28.40
2022-12-19T09:34:36.839Z,27.17
2022-12-19T09:37:15.779Z,27.45
2022-12-19T09:39:43.106Z,26.45
2022-12-19T09:42:41.128Z,26.13
2022-12-19T09:45:25.655Z,27.23
2022-12-19T09:47:59.031Z,27.65
2022-12-19T09:50:47.838Z,27.25
2022-12-19T09:53:36.043Z,26.58
2022-12-19T09:56:02.855Z,27.00
2022-12-19T09:58:37.318Z,27.15
2022-12-19T10:01:13.824Z,27.85
2022-12-19T10:03:45.158Z,27.27
2022-12-19T10:07:06.363Z,28.33
2022-12-19T10:12:33.160Z,27.98
2022-12-19T10:12:47.891Z,25.95
2022-12-19T10:15:44.237Z,24.60
2022-12-19T10:18:35.926Z,28.58
2022-12-19T10:21:07.754Z,26.23
2022-12-19T10:23:51.087Z,26.00
2022-12-19T10:26:22.369Z,25.42
2022-12-19T10:29:25.873Z,26.63
2022-12-19T10:32:18.564Z,26.40
2022-12-19T10:34:47.213Z,25.52
2022-12-19T10:37:27.732Z,26.70
2022-12-19T10:40:24.757Z,26.58
2022-12-19T10:43:17.211Z,26.67
2022-12-19T10:45:57.598Z,25.05
2022-12-19T10:48:30.373Z,25.73
2022-12-19T10:50:57.768Z,25.27
2022-12-19T10:53:31.325Z,24.02
2022-12-19T10:56:11.267Z,24.88
2022-12-19T10:58:41.786Z,24.15
2022-12-19T11:01:14.282Z,23.02
2022-12-19T11:03:46.581Z,22.73
2022-12-19T11:06:52.896Z,22.47
2022-12-19T11:09:27.613Z,22.42
2022-12-19T11:15:34.463Z,22.92
2022-12-19T11:19:54.950Z,23.52
2022-12-19T11:27:16.173Z,22.98
2022-12-19T11:29:26.684Z,22.25
2022-12-19T11:30:39.545Z,21.90
2022-12-19T11:30:48.669Z,21.17
2022-12-19T11:32:41.556Z,22.13
2022-12-19T11:35:24.342Z,22.20
2022-12-19T11:37:58.179Z,21.52
2022-12-19T11:40:43.115Z,20.85
2022-12-19T11:43:46.226Z,21.65
2022-12-19T11:46:22.140Z,20.55
2022-12-19T11:48:58.664Z,21.02
2022-12-19T11:51:33.362Z,20.02
2022-12-19T11:54:13.868Z,20.70
2022-12-19T11:56:40.371Z,19.33
2022-12-19T11:59:18.858Z,20.08
2022-12-19T12:01:51.271Z,20.88
2022-12-19T12:04:29.533Z,20.83
2022-12-19T12:06:57.805Z,20.27
2022-12-19T12:11:40.906Z,20.48
2022-12-19T12:15:02.244Z,19.38
2022-12-19T12:30:59.355Z,19.85
2022-12-19T12:31:05.780Z,20.42
2022-12-19T12:31:19.471Z,19.45
2022-12-19T12:31:47.564Z,19.48
2022-12-19T12:31:49.435Z,20.95
2022-12-19T12:35:22.364Z,19.17
2022-12-19T12:38:27.531Z,19.83
2022-12-19T12:41:06.455Z,18.80
2022-12-19T12:43:55.903Z,17.92
2022-12-19T12:46:27.580Z,18.20
2022-12-19T12:49:02.933Z,19.05
2022-12-19T12:51:32.804Z,18.65
2022-12-19T12:54:07.473Z,18.52
2022-12-19T12:56:36.345Z,19.35
2022-12-19T12:59:21.702Z,18.77
2022-12-19T13:01:53.659Z,18.02
2022-12-19T13:04:30.129Z,17.60
2022-12-19T13:07:28.496Z,17.30
2022-12-19T13:10:19.100Z,17.85
2022-12-19T13:13:16.514Z,17.77
2022-12-19T13:15:45.177Z,16.73
2022-12-19T13:18:32.079Z,17.15
2022-12-19T13:21:00.439Z,16.85
2022-12-19T13:23:29.787Z,16.30
2022-12-19T13:25:56.982Z,16.10
2022-12-19T13:28:23.405Z,15.32
2022-12-19T13:31:16.594Z,14.98
2022-12-19T13:33:48.254Z,15.52
2022-12-19T13:39:48.574Z,14.63
2022-12-19T13:40:10.965Z,15.55
2022-12-19T13:43:10.566Z,15.38
2022-12-19T13:45:41.224Z,13.57
2022-12-19T13:48:15.375Z,14.10
2022-12-19T13:50:43.321Z,13.85
2022-12-19T13:53:16.360Z,14.75
2022-12-19T13:55:42.763Z,13.75
2022-12-19T13:58:32.338Z,13.43
2022-12-19T14:01:08.402Z,13.07
2022-12-19T14:03:50.689Z,13.82
2022-12-19T14:06:30.943Z,13.02
2022-12-19T14:09:58.747Z,13.52
2022-12-19T14:12:21.221Z,13.10
2022-12-19T14:15:13.138Z,13.50
2022-12-19T14:17:40.238Z,13.80
2022-12-19T14:20:48.953Z,13.10
2022-12-19T14:23:05.606Z,12.18
2022-12-19T14:28:19.051Z,12.57
2022-12-19T14:28:46.438Z,12.23
2022-12-19T14:31:19.219Z,13.48
2022-12-19T14:34:42.947Z,12.32
2022-12-19T14:36:39.924Z,12.18
2022-12-19T14:39:23.170Z,12.57
2022-12-19T14:42:19.171Z,11.95
2022-12-19T14:52:51.749Z,13.75
2022-12-19T14:54:02.817Z,12.48
2022-12-19T14:54:03.814Z,13.15
2022-12-19T14:54:24.628Z,13.07
2022-12-19T14:59:17.288Z,11.32
2022-12-19T15:01:52.786Z,12.27
2022-12-19T15:04:50.817Z,11.73
2022-12-19T15:07:19.280Z,12.38
2022-12-19T15:11:02.900Z,11.60
2022-12-19T15:14:53.853Z,11.40
2022-12-19T15:16:25.212Z,11.75
2022-12-19T15:18:56.242Z,11.20
2022-12-19T15:21:22.691Z,11.70
2022-12-19T15:23:49.160Z,11.80
2022-12-19T15:26:27.790Z,11.85
2022-12-19T15:28:56.208Z,10.90
2022-12-19T15:31:29.708Z,11.50
2022-12-19T15:36:43.316Z,11.60
2022-12-19T15:39:09.868Z,11.10
2022-12-19T15:41:36.594Z,10.18
2022-12-19T15:44:35.561Z,11.18
2022-12-19T15:47:04.904Z,10.90
2022-12-19T15:49:32.750Z,10.35
2022-12-19T15:51:59.184Z,10.48
2022-12-19T15:57:35.874Z,10.68
2022-12-19T16:00:07.627Z,11.25
2022-12-19T16:03:22.659Z,9.75
2022-12-19T16:05:22.797Z,10.07
2022-12-19T16:07:49.732Z,10.70
2022-12-19T16:10:16.326Z,10.65
2022-12-19T16:12:55.318Z,11.82
2022-12-19T16:15:29.338Z,10.02
2022-12-19T16:17:57.667Z,9.57
2022-12-19T16:20:30.424Z,9.65
2022-12-19T16:22:57.746Z,10.02
2022-12-19T16:25:31.897Z,9.60
2022-12-19T16:27:59.711Z,9.90
2022-12-19T16:30:30.843Z,9.35
2022-12-19T16:32:57.458Z,9.30
2022-12-19T16:35:55.111Z,10.02
2022-12-19T16:38:12.953Z,9.15
2022-12-19T16:40:39.565Z,9.18
2022-12-19T16:43:13.624Z,8.93
2022-12-19T16:45:40.076Z,8.90
2022-12-19T16:48:22.326Z,9.50
2022-12-19T16:50:49.383Z,9.63
2022-12-19T16:53:16.755Z,10.30
2022-12-19T16:55:44.222Z,8.73
2022-12-19T16:58:18.712Z,10.32
2022-12-19T17:00:45.512Z,9.35
2022-12-19T17:03:41.331Z,10.02
2022-12-19T17:06:17.027Z,9.63
2022-12-19T17:08:43.886Z,9.25
2022-12-19T17:11:20.747Z,9.48
2022-12-19T17:14:02.309Z,9.77
2022-12-19T17:16:30.931Z,8.95
2022-12-19T17:18:58.089Z,9.05
2022-12-19T17:21:24.546Z,9.40
2022-12-19T17:23:51.645Z,9.02
2022-12-19T17:26:18.610Z,9.68
2022-12-19T17:28:48.003Z,9.65
2022-12-19T17:31:27.218Z,8.88
2022-12-19T17:33:58.385Z,8.32
2022-12-19T17:36:37.135Z,9.02
2022-12-19T17:39:21.438Z,9.73
2022-12-19T17:41:49.372Z,9.73
2022-12-19T17:44:16.137Z,9.63
2022-12-19T17:46:43.586Z,9.07
2022-12-19T17:49:31.545Z,8.68
2022-12-19T17:51:59.621Z,9.45
2022-12-19T17:54:27.180Z,9.02
2022-12-19T17:56:53.807Z,8.80
2022-12-19T17:59:20.842Z,8.80
2022-12-19T18:01:47.679Z,9.52
2022-12-19T18:04:18.802Z,9.52
2022-12-19T18:06:45.951Z,9.45
2022-12-19T18:09:19.717Z,8.75
2022-12-19T18:11:47.150Z,9.38
2022-12-19T18:14:14.336Z,9.02
2022-12-19T18:16:41.321Z,8.85
2022-12-19T18:19:17.329Z,8.93
2022-12-19T18:21:43.784Z,9.32
2022-12-19T18:24:12.063Z,9.48
2022-12-19T18:26:38.531Z,8.82
2022-12-19T18:29:04.921Z,9.27
2022-12-19T18:31:31.434Z,9.02
2022-12-19T18:34:07.096Z,9.50
2022-12-19T18:36:40.162Z,9.10
2022-12-19T18:39:22.668Z,8.82
2022-12-19T18:41:50.139Z,8.85
2022-12-19T18:44:17.172Z,9.60
2022-12-19T18:46:43.809Z,8.90
2022-12-19T18:49:13.016Z,8.57
2022-12-19T18:51:39.701Z,9.38
2022-12-19T18:54:20.492Z,9.25
2022-12-19T18:56:47.416Z,8.57
2022-12-19T18:59:13.890Z,8.80
2022-12-19T19:01:46.440Z,9.57
2022-12-19T19:04:17.382Z,8.93
2022-12-19T19:06:50.860Z,8.23
2022-12-19T19:09:19.489Z,8.50
2022-12-19T19:11:56.652Z,8.65
2022-12-19T19:14:23.182Z,8.82
2022-12-19T19:16:49.620Z,8.23
2022-12-19T19:19:18.134Z,8.82
2022-12-19T19:21:44.939Z,8.15
2022-12-19T19:24:20.933Z,8.30
2022-12-19T19:26:47.400Z,8.30
2022-12-19T19:29:14.809Z,8.57
2022-12-19T19:31:45.750Z,8.40
2022-12-19T19:34:24.207Z,8.23
2022-12-19T19:36:54.660Z,8.63
2022-12-19T19:39:23.059Z,8.15
2022-12-19T19:41:49.518Z,7.85
2022-12-19T19:44:15.895Z,7.43
2022-12-19T19:46:42.330Z,8.20
2022-12-19T19:49:09.271Z,7.85
2022-12-19T19:51:36.045Z,7.50
2022-12-19T19:54:02.482Z,7.70
2022-12-19T19:56:29.005Z,7.80
2022-12-19T19:58:59.331Z,8.32
2022-12-19T20:01:26.285Z,8.10
2022-12-19T20:03:52.910Z,7.28
2022-12-19T20:06:19.649Z,7.78
2022-12-19T20:08:46.175Z,8.23
2022-12-19T20:11:13.558Z,7.60
2022-12-19T20:13:40.006Z,7.80
2022-12-19T20:16:09.943Z,7.53
2022-12-19T20:18:37.883Z,7.68
2022-12-19T20:21:12.312Z,7.47
2022-12-19T20:23:41.355Z,6.95
2022-12-19T20:26:07.913Z,7.80
2022-12-19T20:28:34.804Z,7.85
2022-12-19T20:31:01.321Z,7.43
2022-12-19T20:33:27.822Z,6.80
2022-12-19T20:35:58.750Z,6.57
2022-12-19T20:38:25.158Z,6.85
2022-12-19T20:40:52.883Z,7.75
2022-12-19T20:43:19.777Z,6.88
2022-12-19T20:45:46.374Z,6.35
2022-12-19T20:48:12.832Z,6.53
2022-12-19T20:50:43.177Z,7.05
2022-12-19T20:53:09.873Z,6.05
2022-12-19T20:55:36.270Z,5.30
2022-12-19T20:58:02.682Z,6.13
2022-12-19T21:00:29.104Z,6.18
2022-12-19T21:03:26.555Z,6.10
2022-12-19T21:05:42.056Z,6.22
2022-12-19T21:08:08.434Z,6.05
2022-12-19T21:10:35.241Z,6.55
2022-12-19T21:13:01.678Z,5.78
2022-12-19T21:15:28.141Z,5.95
2022-12-19T21:17:54.693Z,6.70
2022-12-19T21:20:21.077Z,5.72
2022-12-19T21:22:47.467Z,5.53
2022-12-19T21:25:13.962Z,5.70
2022-12-19T21:27:40.731Z,5.75
2022-12-19T21:30:07.830Z,7.45
2022-12-19T21:32:34.506Z,6.85
2022-12-19T21:35:00.919Z,6.50
2022-12-19T21:37:27.286Z,6.28
2022-12-19T21:39:53.811Z,6.90
2022-12-19T21:42:20.203Z,6.35
2022-12-19T21:44:46.881Z,6.40
2022-12-19T21:47:13.317Z,6.43
2022-12-19T21:49:40.206Z,5.57
2022-12-19T21:52:06.648Z,5.40
2022-12-19T21:54:33.041Z,5.82
2022-12-19T21:56:59.429Z,6.65
2022-12-19T21:59:25.856Z,6.45
2022-12-19T22:01:52.496Z,6.63
2022-12-19T22:04:21.816Z,6.00
2022-12-19T22:06:49.997Z,5.95
2022-12-19T22:09:19.921Z,5.85
2022-12-19T22:11:46.644Z,5.63
2022-12-19T22:14:14.580Z,5.78
2022-12-19T22:16:41.613Z,5.75
2022-12-19T22:19:15.601Z,5.63
2022-12-19T22:21:42.794Z,5.80
2022-12-19T22:24:11.417Z,5.30
2022-12-19T22:26:38.191Z,5.43
2022-12-19T22:29:09.700Z,5.18
2022-12-19T22:31:38.081Z,4.75
2022-12-19T22:34:07.139Z,5.03
2022-12-19T22:36:35.935Z,5.10
2022-12-19T22:39:04.786Z,4.40
2022-12-19T22:41:32.767Z,4.65
2022-12-19T22:43:59.205Z,5.20
2022-12-19T22:46:28.650Z,5.35
2022-12-19T22:48:57.806Z,4.72
2022-12-19T22:51:25.458Z,4.50
2022-12-19T22:53:52.170Z,4.32
2022-12-19T22:56:20.567Z,4.80
2022-12-19T22:58:49.380Z,4.97
2022-12-19T23:01:29.372Z,4.85
2022-12-19T23:03:58.737Z,4.50
2022-12-19T23:06:27.364Z,4.68
2022-12-19T23:08:54.023Z,4.30
2022-12-19T23:11:24.985Z,4.25
2022-12-19T23:13:51.558Z,3.92
2022-12-19T23:16:18.618Z,4.20
2022-12-19T23:18:46.262Z,3.95
2022-12-19T23:21:21.796Z,3.85
2022-12-19T23:23:50.302Z,3.83
2022-12-19T23:26:24.713Z,4.20
2022-12-19T23:28:53.799Z,4.20
2022-12-19T23:31:20.274Z,4.03
2022-12-19T23:33:46.855Z,3.63
2022-12-19T23:36:13.897Z,3.45
2022-12-19T23:38:42.040Z,3.47
2022-12-19T23:41:10.916Z,3.63
2022-12-19T23:43:38.289Z,3.10
2022-12-19T23:46:06.935Z,3.40
2022-12-19T23:48:33.733Z,3.30
2022-12-19T23:51:01.697Z,3.05
2022-12-19T23:53:28.201Z,3.33
2022-12-19T23:55:54.664Z,3.08
2022-12-19T23:58:24.665Z,2.90
